sensor_id;sensor_type;location;lat;lon;timestamp;P1;durP1;ratioP1;P2;durP2;ratioP2
7529;SDS011;3806;52.270;10.544;2023-08-21T00:00:05;5.63;;;3.28;;
7529;SDS011;3806;52.270;10.544;2023-08-21T00:02:30;8.95;;;3.17;;
7529;SDS011;3806;52.270;10.544;2023-08-21T00:04:56;5.28;;;3.60;;
7529;SDS011;3806;52.270;10.544;2023-08-21T00:07:22;7.63;;;3.53;;
7529;SDS011;3806;52.270;10.544;2023-08-21T00:09:47;5.50;;;3.55;;
7529;SDS011;3806;52.270;10.544;2023-08-21T00:12:13;4.18;;;2.90;;
7529;SDS011;3806;52.270;10.544;2023-08-21T00:14:39;5.13;;;3.42;;
7529;SDS011;3806;52.270;10.544;2023-08-21T00:17:04;6.00;;;4.13;;
7529;SDS011;3806;52.270;10.544;2023-08-21T00:19:30;5.72;;;3.20;;
7529;SDS011;3806;52.270;10.544;2023-08-21T00:21:55;5.80;;;3.78;;
7529;SDS011;3806;52.270;10.544;2023-08-21T00:24:21;4.05;;;3.65;;
7529;SDS011;3806;52.270;10.544;2023-08-21T00:26:46;4.13;;;3.35;;
7529;SDS011;3806;52.270;10.544;2023-08-21T00:29:12;5.97;;;3.65;;
7529;SDS011;3806;52.270;10.544;2023-08-21T00:31:38;6.85;;;3.53;;
7529;SDS011;3806;52.270;10.544;2023-08-21T00:34:03;6.20;;;3.40;;
7529;SDS011;3806;52.270;10.544;2023-08-21T00:36:29;5.55;;;3.30;;
7529;SDS011;3806;52.270;10.544;2023-08-21T00:38:54;4.63;;;3.70;;
7529;SDS011;3806;52.270;10.544;2023-08-21T00:41:20;6.85;;;3.55;;
7529;SDS011;3806;52.270;10.544;2023-08-21T00:43:46;7.68;;;3.45;;
7529;SDS011;3806;52.270;10.544;2023-08-21T00:46:11;7.90;;;3.40;;
7529;SDS011;3806;52.270;10.544;2023-08-21T00:48:37;6.88;;;3.78;;
7529;SDS011;3806;52.270;10.544;2023-08-21T00:51:03;4.50;;;3.42;;
7529;SDS011;3806;52.270;10.544;2023-08-21T00:53:29;6.15;;;3.08;;
7529;SDS011;3806;52.270;10.544;2023-08-21T00:55:55;5.10;;;3.47;;
7529;SDS011;3806;52.270;10.544;2023-08-21T00:58:21;4.50;;;3.63;;
7529;SDS011;3806;52.270;10.544;2023-08-21T01:00:46;7.45;;;3.80;;
7529;SDS011;3806;52.270;10.544;2023-08-21T01:03:15;5.50;;;3.47;;
7529;SDS011;3806;52.270;10.544;2023-08-21T01:05:40;6.80;;;3.72;;
7529;SDS011;3806;52.270;10.544;2023-08-21T01:08:25;5.20;;;3.47;;
7529;SDS011;3806;52.270;10.544;2023-08-21T01:14:03;3.78;;;3.30;;
7529;SDS011;3806;52.270;10.544;2023-08-21T01:16:36;5.63;;;3.72;;
7529;SDS011;3806;52.270;10.544;2023-08-21T01:19:02;5.22;;;3.17;;
7529;SDS011;3806;52.270;10.544;2023-08-21T01:21:34;8.93;;;4.20;;
7529;SDS011;3806;52.270;10.544;2023-08-21T01:23:59;4.50;;;3.70;;
7529;SDS011;3806;52.270;10.544;2023-08-21T01:26:25;4.70;;;3.40;;
7529;SDS011;3806;52.270;10.544;2023-08-21T01:28:50;6.50;;;3.90;;
7529;SDS011;3806;52.270;10.544;2023-08-21T01:31:26;4.30;;;3.63;;
7529;SDS011;3806;52.270;10.544;2023-08-21T01:33:57;5.30;;;3.88;;
7529;SDS011;3806;52.270;10.544;2023-08-21T01:36:26;6.63;;;3.83;;
7529;SDS011;3806;52.270;10.544;2023-08-21T01:38:53;6.35;;;3.85;;
7529;SDS011;3806;52.270;10.544;2023-08-21T01:41:18;7.78;;;3.67;;
7529;SDS011;3806;52.270;10.544;2023-08-21T01:43:44;5.15;;;3.63;;
7529;SDS011;3806;52.270;10.544;2023-08-21T01:46:09;6.10;;;3.30;;
7529;SDS011;3806;52.270;10.544;2023-08-21T01:48:37;6.57;;;3.55;;
7529;SDS011;3806;52.270;10.544;2023-08-21T01:51:02;5.07;;;3.53;;
7529;SDS011;3806;52.270;10.544;2023-08-21T01:53:28;5.65;;;3.75;;
7529;SDS011;3806;52.270;10.544;2023-08-21T01:55:54;6.63;;;4.03;;
7529;SDS011;3806;52.270;10.544;2023-08-21T01:58:19;5.57;;;3.70;;
7529;SDS011;3806;52.270;10.544;2023-08-21T02:00:45;6.07;;;3.88;;
7529;SDS011;3806;52.270;10.544;2023-08-21T02:03:11;4.50;;;3.50;;
7529;SDS011;3806;52.270;10.544;2023-08-21T02:05:38;4.88;;;3.55;;
7529;SDS011;3806;52.270;10.544;2023-08-21T02:08:04;8.00;;;3.70;;
7529;SDS011;3806;52.270;10.544;2023-08-21T02:10:31;5.72;;;4.25;;
7529;SDS011;3806;52.270;10.544;2023-08-21T02:12:57;6.60;;;3.88;;
7529;SDS011;3806;52.270;10.544;2023-08-21T02:15:22;5.78;;;4.15;;
7529;SDS011;3806;52.270;10.544;2023-08-21T02:17:48;9.15;;;3.60;;
7529;SDS011;3806;52.270;10.544;2023-08-21T02:20:13;6.68;;;3.90;;
7529;SDS011;3806;52.270;10.544;2023-08-21T02:22:39;5.97;;;3.50;;
7529;SDS011;3806;52.270;10.544;2023-08-21T02:25:04;6.03;;;4.00;;
7529;SDS011;3806;52.270;10.544;2023-08-21T02:27:30;3.70;;;3.30;;
7529;SDS011;3806;52.270;10.544;2023-08-21T02:29:56;11.68;;;3.85;;
7529;SDS011;3806;52.270;10.544;2023-08-21T02:32:21;4.07;;;3.67;;
7529;SDS011;3806;52.270;10.544;2023-08-21T02:34:47;5.35;;;4.38;;
7529;SDS011;3806;52.270;10.544;2023-08-21T02:37:12;11.00;;;3.85;;
7529;SDS011;3806;52.270;10.544;2023-08-21T02:39:38;5.72;;;3.70;;
7529;SDS011;3806;52.270;10.544;2023-08-21T02:42:03;5.88;;;3.63;;
7529;SDS011;3806;52.270;10.544;2023-08-21T02:44:29;9.13;;;4.57;;
7529;SDS011;3806;52.270;10.544;2023-08-21T02:46:54;6.70;;;4.00;;
7529;SDS011;3806;52.270;10.544;2023-08-21T02:49:20;7.72;;;4.10;;
7529;SDS011;3806;52.270;10.544;2023-08-21T02:51:45;5.53;;;4.03;;
7529;SDS011;3806;52.270;10.544;2023-08-21T02:54:11;8.23;;;4.00;;
7529;SDS011;3806;52.270;10.544;2023-08-21T02:56:36;6.95;;;3.85;;
7529;SDS011;3806;52.270;10.544;2023-08-21T02:59:02;6.07;;;3.92;;
7529;SDS011;3806;52.270;10.544;2023-08-21T03:01:27;5.70;;;4.05;;
7529;SDS011;3806;52.270;10.544;2023-08-21T03:03:53;7.43;;;3.65;;
7529;SDS011;3806;52.270;10.544;2023-08-21T03:06:18;8.68;;;4.35;;
7529;SDS011;3806;52.270;10.544;2023-08-21T03:08:44;6.53;;;4.03;;
7529;SDS011;3806;52.270;10.544;2023-08-21T03:11:09;6.63;;;3.97;;
7529;SDS011;3806;52.270;10.544;2023-08-21T03:13:35;7.18;;;4.32;;
7529;SDS011;3806;52.270;10.544;2023-08-21T03:16:01;5.93;;;4.20;;
7529;SDS011;3806;52.270;10.544;2023-08-21T03:18:29;7.15;;;4.20;;
7529;SDS011;3806;52.270;10.544;2023-08-21T03:20:56;5.22;;;3.90;;
7529;SDS011;3806;52.270;10.544;2023-08-21T03:23:22;7.90;;;4.03;;
7529;SDS011;3806;52.270;10.544;2023-08-21T03:25:47;5.18;;;4.22;;
7529;SDS011;3806;52.270;10.544;2023-08-21T03:28:13;4.97;;;4.15;;
7529;SDS011;3806;52.270;10.544;2023-08-21T03:30:39;7.75;;;4.35;;
7529;SDS011;3806;52.270;10.544;2023-08-21T03:33:05;5.95;;;4.20;;
7529;SDS011;3806;52.270;10.544;2023-08-21T03:35:32;6.05;;;3.80;;
7529;SDS011;3806;52.270;10.544;2023-08-21T03:37:57;7.35;;;4.43;;
7529;SDS011;3806;52.270;10.544;2023-08-21T03:40:23;6.32;;;4.20;;
7529;SDS011;3806;52.270;10.544;2023-08-21T03:42:48;4.80;;;4.10;;
7529;SDS011;3806;52.270;10.544;2023-08-21T03:45:14;7.93;;;4.00;;
7529;SDS011;3806;52.270;10.544;2023-08-21T03:47:39;5.97;;;3.92;;
7529;SDS011;3806;52.270;10.544;2023-08-21T03:50:05;8.77;;;4.78;;
7529;SDS011;3806;52.270;10.544;2023-08-21T03:52:31;10.27;;;4.88;;
7529;SDS011;3806;52.270;10.544;2023-08-21T03:54:56;7.03;;;4.65;;
7529;SDS011;3806;52.270;10.544;2023-08-21T03:57:22;6.55;;;3.72;;
7529;SDS011;3806;52.270;10.544;2023-08-21T03:59:47;6.20;;;4.47;;
7529;SDS011;3806;52.270;10.544;2023-08-21T04:02:13;6.45;;;4.88;;
7529;SDS011;3806;52.270;10.544;2023-08-21T04:04:38;7.88;;;4.03;;
7529;SDS011;3806;52.270;10.544;2023-08-21T04:07:04;6.90;;;4.80;;
7529;SDS011;3806;52.270;10.544;2023-08-21T04:09:29;7.20;;;4.40;;
7529;SDS011;3806;52.270;10.544;2023-08-21T04:11:55;7.57;;;4.45;;
7529;SDS011;3806;52.270;10.544;2023-08-21T04:14:20;7.43;;;4.65;;
7529;SDS011;3806;52.270;10.544;2023-08-21T04:16:46;9.23;;;4.35;;
7529;SDS011;3806;52.270;10.544;2023-08-21T04:19:11;4.72;;;3.92;;
7529;SDS011;3806;52.270;10.544;2023-08-21T04:21:37;5.97;;;4.40;;
7529;SDS011;3806;52.270;10.544;2023-08-21T04:24:02;8.27;;;4.40;;
7529;SDS011;3806;52.270;10.544;2023-08-21T04:26:28;8.20;;;4.70;;
7529;SDS011;3806;52.270;10.544;2023-08-21T04:28:53;8.57;;;4.63;;
7529;SDS011;3806;52.270;10.544;2023-08-21T04:31:19;9.80;;;4.15;;
7529;SDS011;3806;52.270;10.544;2023-08-21T04:33:44;6.28;;;4.47;;
7529;SDS011;3806;52.270;10.544;2023-08-21T04:36:16;9.38;;;4.50;;
7529;SDS011;3806;52.270;10.544;2023-08-21T04:38:42;6.50;;;4.85;;
7529;SDS011;3806;52.270;10.544;2023-08-21T04:41:08;8.77;;;5.20;;
7529;SDS011;3806;52.270;10.544;2023-08-21T04:43:35;6.75;;;4.53;;
7529;SDS011;3806;52.270;10.544;2023-08-21T04:46:01;7.10;;;4.47;;
7529;SDS011;3806;52.270;10.544;2023-08-21T04:48:28;7.15;;;4.50;;
7529;SDS011;3806;52.270;10.544;2023-08-21T04:50:54;6.60;;;4.97;;
7529;SDS011;3806;52.270;10.544;2023-08-21T04:53:20;7.22;;;4.20;;
7529;SDS011;3806;52.270;10.544;2023-08-21T04:55:45;5.85;;;4.20;;
7529;SDS011;3806;52.270;10.544;2023-08-21T04:58:11;8.68;;;4.65;;
7529;SDS011;3806;52.270;10.544;2023-08-21T05:00:37;8.48;;;4.40;;
7529;SDS011;3806;52.270;10.544;2023-08-21T05:03:03;8.88;;;5.28;;
7529;SDS011;3806;52.270;10.544;2023-08-21T05:05:29;7.82;;;4.57;;
7529;SDS011;3806;52.270;10.544;2023-08-21T05:07:54;10.95;;;4.75;;
7529;SDS011;3806;52.270;10.544;2023-08-21T05:10:20;10.52;;;4.55;;
7529;SDS011;3806;52.270;10.544;2023-08-21T05:12:46;8.15;;;4.07;;
7529;SDS011;3806;52.270;10.544;2023-08-21T05:15:11;9.77;;;4.07;;
7529;SDS011;3806;52.270;10.544;2023-08-21T05:17:37;7.68;;;4.30;;
7529;SDS011;3806;52.270;10.544;2023-08-21T05:20:03;6.30;;;4.40;;
7529;SDS011;3806;52.270;10.544;2023-08-21T05:22:29;9.48;;;4.70;;
7529;SDS011;3806;52.270;10.544;2023-08-21T05:24:55;6.30;;;3.92;;
7529;SDS011;3806;52.270;10.544;2023-08-21T05:27:20;8.65;;;4.30;;
7529;SDS011;3806;52.270;10.544;2023-08-21T05:29:46;11.55;;;4.60;;
7529;SDS011;3806;52.270;10.544;2023-08-21T05:32:12;7.57;;;3.80;;
7529;SDS011;3806;52.270;10.544;2023-08-21T05:34:37;6.63;;;3.42;;
7529;SDS011;3806;52.270;10.544;2023-08-21T05:37:03;6.20;;;3.58;;
7529;SDS011;3806;52.270;10.544;2023-08-21T05:39:29;5.72;;;3.65;;
7529;SDS011;3806;52.270;10.544;2023-08-21T05:41:54;8.15;;;3.20;;
7529;SDS011;3806;52.270;10.544;2023-08-21T05:44:20;7.55;;;3.75;;
7529;SDS011;3806;52.270;10.544;2023-08-21T05:46:45;7.75;;;3.47;;
7529;SDS011;3806;52.270;10.544;2023-08-21T05:49:12;8.30;;;3.50;;
7529;SDS011;3806;52.270;10.544;2023-08-21T05:51:37;6.35;;;3.38;;
7529;SDS011;3806;52.270;10.544;2023-08-21T05:54:03;4.82;;;3.05;;
7529;SDS011;3806;52.270;10.544;2023-08-21T05:56:28;5.88;;;2.92;;
7529;SDS011;3806;52.270;10.544;2023-08-21T05:58:54;5.88;;;2.88;;
7529;SDS011;3806;52.270;10.544;2023-08-21T06:01:19;2.92;;;2.20;;
7529;SDS011;3806;52.270;10.544;2023-08-21T06:03:45;5.13;;;2.63;;
7529;SDS011;3806;52.270;10.544;2023-08-21T06:06:10;7.07;;;2.78;;
7529;SDS011;3806;52.270;10.544;2023-08-21T06:08:36;3.80;;;2.60;;
7529;SDS011;3806;52.270;10.544;2023-08-21T06:11:02;6.72;;;2.40;;
7529;SDS011;3806;52.270;10.544;2023-08-21T06:13:28;7.63;;;2.83;;
7529;SDS011;3806;52.270;10.544;2023-08-21T06:15:53;4.95;;;3.13;;
7529;SDS011;3806;52.270;10.544;2023-08-21T06:18:19;6.85;;;2.53;;
7529;SDS011;3806;52.270;10.544;2023-08-21T06:20:45;5.60;;;2.80;;
7529;SDS011;3806;52.270;10.544;2023-08-21T06:23:11;5.90;;;3.00;;
7529;SDS011;3806;52.270;10.544;2023-08-21T06:25:37;4.78;;;2.60;;
7529;SDS011;3806;52.270;10.544;2023-08-21T06:28:03;4.93;;;2.55;;
7529;SDS011;3806;52.270;10.544;2023-08-21T06:30:28;9.45;;;3.47;;
7529;SDS011;3806;52.270;10.544;2023-08-21T06:32:57;6.65;;;2.67;;
7529;SDS011;3806;52.270;10.544;2023-08-21T06:35:22;5.78;;;2.75;;
7529;SDS011;3806;52.270;10.544;2023-08-21T06:37:48;6.70;;;2.30;;
7529;SDS011;3806;52.270;10.544;2023-08-21T06:40:13;4.05;;;2.30;;
7529;SDS011;3806;52.270;10.544;2023-08-21T06:42:39;7.35;;;2.80;;
7529;SDS011;3806;52.270;10.544;2023-08-21T06:45:05;5.53;;;2.67;;
7529;SDS011;3806;52.270;10.544;2023-08-21T06:47:30;4.75;;;1.98;;
7529;SDS011;3806;52.270;10.544;2023-08-21T06:49:56;4.68;;;2.30;;
7529;SDS011;3806;52.270;10.544;2023-08-21T06:52:22;3.22;;;1.80;;
7529;SDS011;3806;52.270;10.544;2023-08-21T06:54:48;4.93;;;2.50;;
7529;SDS011;3806;52.270;10.544;2023-08-21T06:57:13;5.72;;;2.33;;
7529;SDS011;3806;52.270;10.544;2023-08-21T06:59:39;6.68;;;2.80;;
7529;SDS011;3806;52.270;10.544;2023-08-21T07:02:05;5.82;;;2.42;;
7529;SDS011;3806;52.270;10.544;2023-08-21T07:04:31;4.65;;;1.98;;
7529;SDS011;3806;52.270;10.544;2023-08-21T07:06:58;4.32;;;1.77;;
7529;SDS011;3806;52.270;10.544;2023-08-21T07:09:24;5.55;;;2.00;;
7529;SDS011;3806;52.270;10.544;2023-08-21T07:11:49;3.25;;;1.42;;
7529;SDS011;3806;52.270;10.544;2023-08-21T07:14:15;6.25;;;1.70;;
7529;SDS011;3806;52.270;10.544;2023-08-21T07:16:42;3.40;;;1.70;;
7529;SDS011;3806;52.270;10.544;2023-08-21T07:19:08;3.22;;;1.70;;
7529;SDS011;3806;52.270;10.544;2023-08-21T07:21:33;2.83;;;1.40;;
7529;SDS011;3806;52.270;10.544;2023-08-21T07:24:02;2.58;;;1.35;;
7529;SDS011;3806;52.270;10.544;2023-08-21T07:26:28;3.25;;;1.55;;
7529;SDS011;3806;52.270;10.544;2023-08-21T07:28:54;7.70;;;1.80;;
7529;SDS011;3806;52.270;10.544;2023-08-21T07:31:20;2.25;;;1.25;;
7529;SDS011;3806;52.270;10.544;2023-08-21T07:33:45;2.40;;;1.33;;
7529;SDS011;3806;52.270;10.544;2023-08-21T07:36:11;3.65;;;1.38;;
7529;SDS011;3806;52.270;10.544;2023-08-21T07:38:41;4.32;;;2.10;;
7529;SDS011;3806;52.270;10.544;2023-08-21T07:41:08;3.22;;;1.38;;
7529;SDS011;3806;52.270;10.544;2023-08-21T07:43:35;2.30;;;0.90;;
7529;SDS011;3806;52.270;10.544;2023-08-21T07:46:02;3.05;;;1.27;;
7529;SDS011;3806;52.270;10.544;2023-08-21T07:48:28;3.80;;;1.30;;
7529;SDS011;3806;52.270;10.544;2023-08-21T07:50:54;2.25;;;1.23;;
7529;SDS011;3806;52.270;10.544;2023-08-21T07:53:19;3.58;;;1.42;;
7529;SDS011;3806;52.270;10.544;2023-08-21T07:55:45;3.03;;;1.58;;
7529;SDS011;3806;52.270;10.544;2023-08-21T07:58:11;4.53;;;1.65;;
7529;SDS011;3806;52.270;10.544;2023-08-21T08:00:37;3.78;;;1.30;;
7529;SDS011;3806;52.270;10.544;2023-08-21T08:03:04;2.58;;;1.17;;
7529;SDS011;3806;52.270;10.544;2023-08-21T08:05:30;5.25;;;1.52;;
7529;SDS011;3806;52.270;10.544;2023-08-21T08:07:56;3.47;;;1.20;;
7529;SDS011;3806;52.270;10.544;2023-08-21T08:10:22;2.60;;;1.38;;
7529;SDS011;3806;52.270;10.544;2023-08-21T08:12:47;3.50;;;1.30;;
7529;SDS011;3806;52.270;10.544;2023-08-21T08:15:13;3.20;;;1.55;;
7529;SDS011;3806;52.270;10.544;2023-08-21T08:17:38;1.98;;;1.52;;
7529;SDS011;3806;52.270;10.544;2023-08-21T08:20:04;3.83;;;1.48;;
7529;SDS011;3806;52.270;10.544;2023-08-21T08:22:31;3.35;;;1.20;;
7529;SDS011;3806;52.270;10.544;2023-08-21T08:24:56;4.45;;;1.73;;
7529;SDS011;3806;52.270;10.544;2023-08-21T08:27:22;4.63;;;1.70;;
7529;SDS011;3806;52.270;10.544;2023-08-21T08:29:48;2.90;;;1.30;;
7529;SDS011;3806;52.270;10.544;2023-08-21T08:32:14;2.55;;;1.30;;
7529;SDS011;3806;52.270;10.544;2023-08-21T08:34:40;4.00;;;1.60;;
7529;SDS011;3806;52.270;10.544;2023-08-21T08:37:05;2.85;;;1.33;;
7529;SDS011;3806;52.270;10.544;2023-08-21T08:39:31;3.13;;;1.98;;
7529;SDS011;3806;52.270;10.544;2023-08-21T08:41:58;4.47;;;1.20;;
7529;SDS011;3806;52.270;10.544;2023-08-21T08:44:28;4.65;;;1.42;;
7529;SDS011;3806;52.270;10.544;2023-08-21T08:46:55;3.25;;;1.50;;
7529;SDS011;3806;52.270;10.544;2023-08-21T08:49:22;6.38;;;2.40;;
7529;SDS011;3806;52.270;10.544;2023-08-21T08:51:49;4.32;;;1.70;;
7529;SDS011;3806;52.270;10.544;2023-08-21T08:54:16;3.40;;;1.40;;
7529;SDS011;3806;52.270;10.544;2023-08-21T08:56:42;3.47;;;0.90;;
7529;SDS011;3806;52.270;10.544;2023-08-21T08:59:08;3.83;;;1.15;;
7529;SDS011;3806;52.270;10.544;2023-08-21T09:01:34;2.25;;;1.15;;
7529;SDS011;3806;52.270;10.544;2023-08-21T09:04:00;3.22;;;1.27;;
7529;SDS011;3806;52.270;10.544;2023-08-21T09:06:26;3.35;;;1.23;;
7529;SDS011;3806;52.270;10.544;2023-08-21T09:08:56;4.03;;;1.20;;
7529;SDS011;3806;52.270;10.544;2023-08-21T09:11:22;3.95;;;1.05;;
7529;SDS011;3806;52.270;10.544;2023-08-21T09:13:52;4.93;;;1.55;;
7529;SDS011;3806;52.270;10.544;2023-08-21T09:16:19;2.85;;;1.77;;
7529;SDS011;3806;52.270;10.544;2023-08-21T09:18:46;3.20;;;1.40;;
7529;SDS011;3806;52.270;10.544;2023-08-21T09:21:16;4.22;;;1.15;;
7529;SDS011;3806;52.270;10.544;2023-08-21T09:23:42;3.92;;;1.45;;
7529;SDS011;3806;52.270;10.544;2023-08-21T09:26:09;2.63;;;1.20;;
7529;SDS011;3806;52.270;10.544;2023-08-21T09:28:34;4.45;;;1.80;;
7529;SDS011;3806;52.270;10.544;2023-08-21T09:31:00;2.88;;;1.20;;
7529;SDS011;3806;52.270;10.544;2023-08-21T09:33:27;6.60;;;1.77;;
7529;SDS011;3806;52.270;10.544;2023-08-21T09:35:53;5.30;;;1.85;;
7529;SDS011;3806;52.270;10.544;2023-08-21T09:38:19;5.78;;;1.60;;
7529;SDS011;3806;52.270;10.544;2023-08-21T09:40:51;3.83;;;1.30;;
7529;SDS011;3806;52.270;10.544;2023-08-21T09:43:18;4.78;;;1.02;;
7529;SDS011;3806;52.270;10.544;2023-08-21T09:45:47;2.13;;;0.90;;
7529;SDS011;3806;52.270;10.544;2023-08-21T09:48:13;3.83;;;1.30;;
7529;SDS011;3806;52.270;10.544;2023-08-21T09:50:40;3.10;;;1.00;;
7529;SDS011;3806;52.270;10.544;2023-08-21T09:53:06;2.13;;;1.20;;
7529;SDS011;3806;52.270;10.544;2023-08-21T09:55:32;3.65;;;1.25;;
7529;SDS011;3806;52.270;10.544;2023-08-21T09:57:58;3.63;;;1.15;;
7529;SDS011;3806;52.270;10.544;2023-08-21T10:00:32;5.80;;;1.60;;
7529;SDS011;3806;52.270;10.544;2023-08-21T10:03:03;4.05;;;1.38;;
7529;SDS011;3806;52.270;10.544;2023-08-21T10:05:32;5.32;;;1.30;;
7529;SDS011;3806;52.270;10.544;2023-08-21T10:08:03;3.75;;;1.30;;
7529;SDS011;3806;52.270;10.544;2023-08-21T10:10:31;3.95;;;1.40;;
7529;SDS011;3806;52.270;10.544;2023-08-21T10:13:00;2.53;;;1.17;;
7529;SDS011;3806;52.270;10.544;2023-08-21T10:15:27;6.35;;;1.58;;
7529;SDS011;3806;52.270;10.544;2023-08-21T10:17:54;4.65;;;1.13;;
7529;SDS011;3806;52.270;10.544;2023-08-21T10:20:24;4.82;;;1.73;;
7529;SDS011;3806;52.270;10.544;2023-08-21T10:22:54;4.75;;;1.50;;
7529;SDS011;3806;52.270;10.544;2023-08-21T10:25:25;2.97;;;1.27;;
7529;SDS011;3806;52.270;10.544;2023-08-21T10:27:52;6.55;;;1.20;;
7529;SDS011;3806;52.270;10.544;2023-08-21T10:30:20;1.92;;;0.90;;
7529;SDS011;3806;52.270;10.544;2023-08-21T10:32:48;1.63;;;0.98;;
7529;SDS011;3806;52.270;10.544;2023-08-21T10:35:15;5.60;;;1.15;;
7529;SDS011;3806;52.270;10.544;2023-08-21T10:38:25;3.97;;;1.10;;
7529;SDS011;3806;52.270;10.544;2023-08-21T10:40:33;3.75;;;0.90;;
7529;SDS011;3806;52.270;10.544;2023-08-21T10:42:59;2.53;;;1.08;;
7529;SDS011;3806;52.270;10.544;2023-08-21T10:45:25;3.05;;;1.20;;
7529;SDS011;3806;52.270;10.544;2023-08-21T10:47:51;4.13;;;1.30;;
7529;SDS011;3806;52.270;10.544;2023-08-21T10:50:16;3.58;;;1.17;;
7529;SDS011;3806;52.270;10.544;2023-08-21T10:52:42;3.25;;;1.20;;
7529;SDS011;3806;52.270;10.544;2023-08-21T10:55:12;4.88;;;1.00;;
7529;SDS011;3806;52.270;10.544;2023-08-21T10:57:40;1.58;;;0.90;;
7529;SDS011;3806;52.270;10.544;2023-08-21T11:00:07;1.77;;;0.90;;
7529;SDS011;3806;52.270;10.544;2023-08-21T11:02:37;4.50;;;1.27;;
7529;SDS011;3806;52.270;10.544;2023-08-21T11:05:14;3.42;;;1.48;;
7529;SDS011;3806;52.270;10.544;2023-08-21T11:07:42;3.75;;;1.27;;
7529;SDS011;3806;52.270;10.544;2023-08-21T11:10:13;4.65;;;1.23;;
7529;SDS011;3806;52.270;10.544;2023-08-21T11:12:52;4.18;;;1.38;;
7529;SDS011;3806;52.270;10.544;2023-08-21T11:15:27;4.68;;;1.17;;
7529;SDS011;3806;52.270;10.544;2023-08-21T11:18:01;5.55;;;1.10;;
7529;SDS011;3806;52.270;10.544;2023-08-21T11:20:28;8.02;;;1.23;;
7529;SDS011;3806;52.270;10.544;2023-08-21T11:22:58;2.45;;;0.93;;
7529;SDS011;3806;52.270;10.544;2023-08-21T11:25:25;3.20;;;1.02;;
7529;SDS011;3806;52.270;10.544;2023-08-21T11:27:52;4.90;;;1.13;;
7529;SDS011;3806;52.270;10.544;2023-08-21T11:30:18;3.20;;;1.25;;
7529;SDS011;3806;52.270;10.544;2023-08-21T11:32:43;5.65;;;1.40;;
7529;SDS011;3806;52.270;10.544;2023-08-21T11:35:09;2.67;;;1.02;;
7529;SDS011;3806;52.270;10.544;2023-08-21T11:37:34;2.83;;;0.90;;
7529;SDS011;3806;52.270;10.544;2023-08-21T11:40:10;3.47;;;1.40;;
7529;SDS011;3806;52.270;10.544;2023-08-21T11:42:35;3.55;;;1.20;;
7529;SDS011;3806;52.270;10.544;2023-08-21T11:45:01;1.55;;;0.77;;
7529;SDS011;3806;52.270;10.544;2023-08-21T11:47:30;3.03;;;1.27;;
7529;SDS011;3806;52.270;10.544;2023-08-21T11:50:01;3.35;;;1.10;;
7529;SDS011;3806;52.270;10.544;2023-08-21T11:52:31;2.63;;;0.88;;
7529;SDS011;3806;52.270;10.544;2023-08-21T11:54:57;4.05;;;0.90;;
7529;SDS011;3806;52.270;10.544;2023-08-21T11:57:23;4.82;;;1.40;;
7529;SDS011;3806;52.270;10.544;2023-08-21T11:59:49;4.75;;;1.52;;
7529;SDS011;3806;52.270;10.544;2023-08-21T12:02:21;3.47;;;1.08;;
7529;SDS011;3806;52.270;10.544;2023-08-21T12:04:52;4.60;;;1.10;;
7529;SDS011;3806;52.270;10.544;2023-08-21T12:07:18;2.28;;;1.00;;
7529;SDS011;3806;52.270;10.544;2023-08-21T12:09:47;4.03;;;1.00;;
7529;SDS011;3806;52.270;10.544;2023-08-21T12:12:14;5.10;;;1.05;;
7529;SDS011;3806;52.270;10.544;2023-08-21T12:14:39;3.13;;;1.25;;
7529;SDS011;3806;52.270;10.544;2023-08-21T12:17:05;4.47;;;1.20;;
7529;SDS011;3806;52.270;10.544;2023-08-21T12:19:30;1.85;;;0.80;;
7529;SDS011;3806;52.270;10.544;2023-08-21T12:21:56;4.53;;;1.05;;
7529;SDS011;3806;52.270;10.544;2023-08-21T12:24:23;3.00;;;1.00;;
7529;SDS011;3806;52.270;10.544;2023-08-21T12:26:49;3.97;;;0.90;;
7529;SDS011;3806;52.270;10.544;2023-08-21T12:29:14;2.50;;;0.98;;
7529;SDS011;3806;52.270;10.544;2023-08-21T12:31:41;3.63;;;0.90;;
7529;SDS011;3806;52.270;10.544;2023-08-21T12:34:07;3.67;;;0.90;;
7529;SDS011;3806;52.270;10.544;2023-08-21T12:36:35;1.75;;;0.93;;
7529;SDS011;3806;52.270;10.544;2023-08-21T12:39:02;1.60;;;0.95;;
7529;SDS011;3806;52.270;10.544;2023-08-21T12:41:28;3.58;;;1.27;;
7529;SDS011;3806;52.270;10.544;2023-08-21T12:43:54;2.95;;;0.80;;
7529;SDS011;3806;52.270;10.544;2023-08-21T12:46:20;3.45;;;1.13;;
7529;SDS011;3806;52.270;10.544;2023-08-21T12:48:46;1.80;;;1.05;;
7529;SDS011;3806;52.270;10.544;2023-08-21T12:51:11;4.55;;;1.08;;
7529;SDS011;3806;52.270;10.544;2023-08-21T12:53:37;3.00;;;1.10;;
7529;SDS011;3806;52.270;10.544;2023-08-21T12:56:02;3.80;;;0.70;;
7529;SDS011;3806;52.270;10.544;2023-08-21T12:58:28;6.18;;;1.08;;
7529;SDS011;3806;52.270;10.544;2023-08-21T13:00:54;4.72;;;1.10;;
7529;SDS011;3806;52.270;10.544;2023-08-21T13:03:20;2.45;;;0.82;;
7529;SDS011;3806;52.270;10.544;2023-08-21T13:05:45;3.25;;;1.00;;
7529;SDS011;3806;52.270;10.544;2023-08-21T13:08:11;3.25;;;1.00;;
7529;SDS011;3806;52.270;10.544;2023-08-21T13:10:36;6.50;;;1.48;;
7529;SDS011;3806;52.270;10.544;2023-08-21T13:13:02;2.72;;;1.02;;
7529;SDS011;3806;52.270;10.544;2023-08-21T13:15:28;2.95;;;1.17;;
7529;SDS011;3806;52.270;10.544;2023-08-21T13:17:53;2.25;;;1.05;;
7529;SDS011;3806;52.270;10.544;2023-08-21T13:20:19;4.15;;;1.20;;
7529;SDS011;3806;52.270;10.544;2023-08-21T13:22:48;1.95;;;0.95;;
7529;SDS011;3806;52.270;10.544;2023-08-21T13:25:17;2.80;;;1.00;;
7529;SDS011;3806;52.270;10.544;2023-08-21T13:27:43;3.30;;;0.90;;
7529;SDS011;3806;52.270;10.544;2023-08-21T13:30:09;2.40;;;1.00;;
7529;SDS011;3806;52.270;10.544;2023-08-21T13:32:35;4.18;;;0.90;;
7529;SDS011;3806;52.270;10.544;2023-08-21T13:35:00;2.22;;;0.82;;
7529;SDS011;3806;52.270;10.544;2023-08-21T13:37:26;2.65;;;0.90;;
7529;SDS011;3806;52.270;10.544;2023-08-21T13:39:52;3.78;;;0.77;;
7529;SDS011;3806;52.270;10.544;2023-08-21T13:42:19;4.05;;;1.13;;
7529;SDS011;3806;52.270;10.544;2023-08-21T13:44:45;6.75;;;1.08;;
7529;SDS011;3806;52.270;10.544;2023-08-21T13:47:11;8.52;;;1.63;;
7529;SDS011;3806;52.270;10.544;2023-08-21T13:49:36;4.05;;;0.90;;
7529;SDS011;3806;52.270;10.544;2023-08-21T13:52:02;2.50;;;0.90;;
7529;SDS011;3806;52.270;10.544;2023-08-21T13:54:28;3.20;;;0.98;;
7529;SDS011;3806;52.270;10.544;2023-08-21T13:56:54;2.80;;;0.80;;
7529;SDS011;3806;52.270;10.544;2023-08-21T13:59:19;3.80;;;1.00;;
7529;SDS011;3806;52.270;10.544;2023-08-21T14:01:45;6.07;;;1.20;;
7529;SDS011;3806;52.270;10.544;2023-08-21T14:04:10;3.10;;;0.90;;
7529;SDS011;3806;52.270;10.544;2023-08-21T14:06:36;5.13;;;1.58;;
7529;SDS011;3806;52.270;10.544;2023-08-21T14:09:01;3.20;;;1.08;;
7529;SDS011;3806;52.270;10.544;2023-08-21T14:11:27;3.88;;;1.10;;
7529;SDS011;3806;52.270;10.544;2023-08-21T14:13:53;2.97;;;0.95;;
7529;SDS011;3806;52.270;10.544;2023-08-21T14:16:18;1.50;;;0.90;;
7529;SDS011;3806;52.270;10.544;2023-08-21T14:18:44;3.85;;;1.20;;
7529;SDS011;3806;52.270;10.544;2023-08-21T14:21:09;1.80;;;0.88;;
7529;SDS011;3806;52.270;10.544;2023-08-21T14:23:35;3.10;;;0.80;;
7529;SDS011;3806;52.270;10.544;2023-08-21T14:26:00;3.85;;;1.23;;
7529;SDS011;3806;52.270;10.544;2023-08-21T14:28:26;2.20;;;0.82;;
7529;SDS011;3806;52.270;10.544;2023-08-21T14:30:51;3.95;;;1.02;;
7529;SDS011;3806;52.270;10.544;2023-08-21T14:33:18;3.03;;;0.90;;
7529;SDS011;3806;52.270;10.544;2023-08-21T14:35:43;5.85;;;0.98;;
7529;SDS011;3806;52.270;10.544;2023-08-21T14:38:09;4.25;;;1.20;;
7529;SDS011;3806;52.270;10.544;2023-08-21T14:40:34;6.10;;;1.20;;
7529;SDS011;3806;52.270;10.544;2023-08-21T14:43:01;3.63;;;1.48;;
7529;SDS011;3806;52.270;10.544;2023-08-21T14:45:27;4.15;;;1.10;;
7529;SDS011;3806;52.270;10.544;2023-08-21T14:47:52;3.58;;;0.82;;
7529;SDS011;3806;52.270;10.544;2023-08-21T14:50:18;2.85;;;1.20;;
7529;SDS011;3806;52.270;10.544;2023-08-21T14:52:44;5.28;;;1.70;;
7529;SDS011;3806;52.270;10.544;2023-08-21T14:55:09;3.65;;;1.05;;
7529;SDS011;3806;52.270;10.544;2023-08-21T14:57:35;2.05;;;1.13;;